createdAt,value
2023-04-30T00:00:16.454Z,68.79
2023-04-30T00:02:43.067Z,68.91
2023-04-30T00:05:09.921Z,69.49
2023-04-30T00:07:36.469Z,70.05
2023-04-30T00:10:03.214Z,70.08
2023-04-30T00:12:29.776Z,69.87
2023-04-30T00:14:56.514Z,70.29
2023-04-30T00:17:23.618Z,70.08
2023-04-30T00:19:50.928Z,69.98
2023-04-30T00:22:17.774Z,70.32
2023-04-30T00:24:44.391Z,70.83
2023-04-30T00:27:11.008Z,70.62
2023-04-30T00:29:37.822Z,70.63
2023-04-30T00:32:04.591Z,70.75
2023-04-30T00:34:31.440Z,70.76
2023-04-30T00:36:58.036Z,70.79
2023-04-30T00:39:24.645Z,71.40
2023-04-30T00:41:51.225Z,71.05
2023-04-30T00:44:17.777Z,71.66
2023-04-30T00:46:44.299Z,71.61
2023-04-30T00:49:10.910Z,71.67
2023-04-30T00:51:42.120Z,71.71
2023-04-30T00:54:08.802Z,71.67
2023-04-30T00:56:36.189Z,71.86
2023-04-30T00:59:02.912Z,71.97
2023-04-30T01:01:29.862Z,72.69
2023-04-30T01:03:56.619Z,72.54
2023-04-30T01:06:24.000Z,72.56
2023-04-30T01:08:50.876Z,72.39
2023-04-30T01:11:37.733Z,72.62
2023-04-30T01:14:38.551Z,72.04
2023-04-30T01:17:38.851Z,72.86
2023-04-30T01:20:09.197Z,72.59
2023-04-30T01:22:46.286Z,73.08
2023-04-30T01:25:40.677Z,73.28
2023-04-30T01:28:09.841Z,72.84
2023-04-30T01:30:38.053Z,72.68
2023-04-30T01:33:04.662Z,72.90
2023-04-30T01:35:37.005Z,72.95
2023-04-30T01:38:45.282Z,72.92
2023-04-30T01:41:34.674Z,72.65
2023-04-30T01:44:31.957Z,72.56
2023-04-30T01:47:07.853Z,72.89
2023-04-30T01:50:00.828Z,72.49
2023-04-30T01:52:41.226Z,73.68
2023-04-30T01:55:14.087Z,73.40
2023-04-30T01:57:45.815Z,74.26
2023-04-30T02:00:13.487Z,74.23
2023-04-30T02:02:40.466Z,74.25
2023-04-30T02:05:07.336Z,73.89
2023-04-30T02:07:40.580Z,73.84
2023-04-30T02:10:08.356Z,74.76
2023-04-30T02:12:35.705Z,74.31
2023-04-30T02:15:05.697Z,73.80
2023-04-30T02:17:32.516Z,74.66
2023-04-30T02:19:59.899Z,74.44
2023-04-30T02:22:26.947Z,74.52
2023-04-30T02:24:55.594Z,74.19
2023-04-30T02:27:24.765Z,74.79
2023-04-30T02:29:52.458Z,74.85
2023-04-30T02:32:19.710Z,74.62
2023-04-30T02:34:46.323Z,74.13
2023-04-30T02:37:12.864Z,74.52
2023-04-30T02:39:39.429Z,74.49
2023-04-30T02:42:07.004Z,74.28
2023-04-30T02:44:34.312Z,74.26
2023-04-30T02:47:01.693Z,74.94
2023-04-30T02:49:28.784Z,74.37
2023-04-30T02:51:55.619Z,75.08
2023-04-30T02:54:22.190Z,74.87
2023-04-30T02:56:48.733Z,74.94
2023-04-30T02:59:15.305Z,74.67
2023-04-30T03:01:41.986Z,74.89
2023-04-30T03:04:08.621Z,75.00
2023-04-30T03:06:35.347Z,74.35
2023-04-30T03:09:01.893Z,74.32
2023-04-30T03:11:28.412Z,74.98
2023-04-30T03:13:55.128Z,74.54
2023-04-30T03:16:22.303Z,74.95
2023-04-30T03:18:49.730Z,74.93
2023-04-30T03:21:16.353Z,74.40
2023-04-30T03:23:43.020Z,74.89
2023-04-30T03:26:09.639Z,74.84
2023-04-30T03:28:36.220Z,74.54
2023-04-30T03:31:05.473Z,75.02
2023-04-30T03:33:33.360Z,74.84
2023-04-30T03:35:59.952Z,75.23
2023-04-30T03:38:26.545Z,74.98
2023-04-30T03:40:53.264Z,75.64
2023-04-30T03:43:19.877Z,75.08
2023-04-30T03:45:46.536Z,75.38
2023-04-30T03:48:13.458Z,75.53
2023-04-30T03:50:40.040Z,75.57
2023-04-30T03:53:06.543Z,75.45
2023-04-30T03:55:34.361Z,75.79
2023-04-30T03:58:01.037Z,75.61
2023-04-30T04:00:27.595Z,75.30
2023-04-30T04:02:55.268Z,75.78
2023-04-30T04:05:21.839Z,75.77
2023-04-30T04:07:48.368Z,75.89
2023-04-30T04:10:14.973Z,76.39
2023-04-30T04:12:41.570Z,76.08
2023-04-30T04:15:08.984Z,76.54
2023-04-30T04:17:35.672Z,76.98
2023-04-30T04:20:02.250Z,76.91
2023-04-30T04:22:28.841Z,77.13
2023-04-30T04:24:55.419Z,76.57
2023-04-30T04:27:21.930Z,76.50
2023-04-30T04:29:48.723Z,76.90
2023-04-30T04:32:15.835Z,76.99
2023-04-30T04:34:43.679Z,77.46
2023-04-30T04:37:10.264Z,77.37
2023-04-30T04:39:37.401Z,76.81
2023-04-30T04:42:05.011Z,77.66
2023-04-30T04:44:32.412Z,77.17
2023-04-30T04:46:59.015Z,77.58
2023-04-30T04:49:25.727Z,77.39
2023-04-30T04:51:52.316Z,77.51
2023-04-30T04:54:18.935Z,78.38
2023-04-30T04:56:45.546Z,78.36
2023-04-30T04:59:12.612Z,79.16
2023-04-30T05:01:39.214Z,78.81
2023-04-30T05:04:05.973Z,77.55
2023-04-30T05:06:33.109Z,76.41
2023-04-30T05:08:59.792Z,75.72
2023-04-30T05:11:26.397Z,74.44
2023-04-30T05:13:52.938Z,73.61
2023-04-30T05:16:19.533Z,72.81
2023-04-30T05:18:46.126Z,71.46
2023-04-30T05:21:12.646Z,71.25
2023-04-30T05:23:39.183Z,70.17
2023-04-30T05:26:05.993Z,68.98
2023-04-30T05:28:33.272Z,70.12
2023-04-30T05:30:59.853Z,69.28
2023-04-30T05:33:26.561Z,70.28
2023-04-30T05:35:53.206Z,69.83
2023-04-30T05:38:19.746Z,68.83
2023-04-30T05:40:46.424Z,69.79
2023-04-30T05:43:13.028Z,69.33
2023-04-30T05:45:39.660Z,68.24
2023-04-30T05:48:06.380Z,68.76
2023-04-30T05:50:32.941Z,69.01
2023-04-30T05:52:59.486Z,68.52
2023-04-30T05:55:26.127Z,68.15
2023-04-30T05:57:52.681Z,67.85
2023-04-30T06:00:19.493Z,67.36
2023-04-30T06:02:46.039Z,67.04
2023-04-30T06:05:15.314Z,66.53
2023-04-30T06:07:42.689Z,66.00
2023-04-30T06:10:10.215Z,65.70
2023-04-30T06:12:36.807Z,64.85
2023-04-30T06:15:03.809Z,64.55
2023-04-30T06:17:30.384Z,64.18
2023-04-30T06:19:59.003Z,63.84
2023-04-30T06:22:25.559Z,64.37
2023-04-30T06:24:52.125Z,64.38
2023-04-30T06:27:18.654Z,64.42
2023-04-30T06:29:45.380Z,63.96
2023-04-30T06:32:11.901Z,64.67
2023-04-30T06:34:38.938Z,64.81
2023-04-30T06:37:05.958Z,64.02
2023-04-30T06:39:32.566Z,64.05
2023-04-30T06:41:59.048Z,63.58
2023-04-30T06:44:25.539Z,63.69
2023-04-30T06:46:52.106Z,63.35
2023-04-30T06:49:18.713Z,63.50
2023-04-30T06:51:45.289Z,63.11
2023-04-30T06:54:11.860Z,62.27
2023-04-30T06:56:38.400Z,62.89
2023-04-30T06:59:05.137Z,62.70
2023-04-30T07:01:31.758Z,62.94
2023-04-30T07:03:59.202Z,61.04
2023-04-30T07:06:25.950Z,60.74
2023-04-30T07:08:52.545Z,60.24
2023-04-30T07:11:19.103Z,60.00
2023-04-30T07:13:45.634Z,60.10
2023-04-30T07:16:12.226Z,60.44
2023-04-30T07:18:39.634Z,60.73
2023-04-30T07:21:06.424Z,59.80
2023-04-30T07:23:32.975Z,59.82
2023-04-30T07:25:59.574Z,59.25
2023-04-30T07:28:26.306Z,59.50
2023-04-30T07:30:53.319Z,59.04
2023-04-30T07:33:19.827Z,58.28
2023-04-30T07:35:46.392Z,57.60
2023-04-30T07:38:13.046Z,57.05
2023-04-30T07:40:39.597Z,57.11
2023-04-30T07:43:06.478Z,56.71
2023-04-30T07:45:34.867Z,57.03
2023-04-30T07:48:01.815Z,56.42
2023-04-30T07:50:29.742Z,56.47
2023-04-30T07:52:56.371Z,56.55
2023-04-30T07:55:22.974Z,55.08
2023-04-30T07:57:49.511Z,54.83
2023-04-30T08:00:16.591Z,54.56
2023-04-30T08:02:46.065Z,53.18
2023-04-30T08:05:12.899Z,51.31
2023-04-30T08:07:39.799Z,52.88
2023-04-30T08:10:06.853Z,51.89
2023-04-30T08:12:37.087Z,51.25
2023-04-30T08:15:05.253Z,50.07
2023-04-30T08:17:32.696Z,49.95
2023-04-30T08:19:59.988Z,49.73
2023-04-30T08:22:26.784Z,48.63
2023-04-30T08:24:55.103Z,47.79
2023-04-30T08:27:22.374Z,48.67
2023-04-30T08:29:49.073Z,48.46
2023-04-30T08:32:15.886Z,48.06
2023-04-30T08:34:43.616Z,47.75
2023-04-30T08:37:10.272Z,48.13
2023-04-30T08:39:36.819Z,45.50
2023-04-30T08:42:08.446Z,46.01
2023-04-30T08:44:39.612Z,45.11
2023-04-30T08:47:08.231Z,45.47
2023-04-30T08:49:37.026Z,44.92
2023-04-30T08:52:03.808Z,43.98
2023-04-30T08:54:35.317Z,43.45
2023-04-30T08:57:02.674Z,45.01
2023-04-30T08:59:29.545Z,44.33
2023-04-30T09:01:56.431Z,43.56
2023-04-30T09:04:23.154Z,43.61
2023-04-30T09:06:53.599Z,44.94
2023-04-30T09:09:20.325Z,44.55
2023-04-30T09:11:46.848Z,43.95
2023-04-30T09:14:13.437Z,44.03
2023-04-30T09:16:51.399Z,43.60
2023-04-30T09:19:29.889Z,42.89
2023-04-30T09:21:56.731Z,42.09
2023-04-30T09:24:24.130Z,42.50
2023-04-30T09:26:51.517Z,42.36
2023-04-30T09:29:18.048Z,41.83
2023-04-30T09:31:47.184Z,41.43
2023-04-30T09:34:14.672Z,40.23
2023-04-30T09:36:55.080Z,39.95
2023-04-30T09:39:22.254Z,39.74
2023-04-30T09:41:50.657Z,40.00
2023-04-30T09:44:28.533Z,40.31
2023-04-30T09:46:56.781Z,39.75
2023-04-30T09:49:23.390Z,39.94
2023-04-30T09:52:01.146Z,40.22
2023-04-30T09:54:30.564Z,40.21
2023-04-30T09:57:02.327Z,40.60
2023-04-30T09:59:37.852Z,41.12
2023-04-30T10:02:06.721Z,40.74
2023-04-30T10:04:41.898Z,40.72
2023-04-30T10:07:22.511Z,41.21
2023-04-30T10:09:50.882Z,40.41
2023-04-30T10:12:26.070Z,39.91
2023-04-30T10:15:02.850Z,39.90
2023-04-30T10:17:33.323Z,41.06
2023-04-30T10:20:05.806Z,41.58
2023-04-30T10:22:34.871Z,40.65
2023-04-30T10:25:02.310Z,40.78
2023-04-30T10:27:30.387Z,41.38
2023-04-30T10:29:58.289Z,41.23
2023-04-30T10:32:36.832Z,41.12
2023-04-30T10:35:16.244Z,40.63
2023-04-30T10:38:07.714Z,40.49
2023-04-30T10:40:37.309Z,40.59
2023-04-30T10:43:03.938Z,40.28
2023-04-30T10:45:38.210Z,40.86
2023-04-30T10:48:06.889Z,41.00
2023-04-30T10:50:39.556Z,40.26
2023-04-30T10:53:07.194Z,40.68
2023-04-30T10:55:33.817Z,41.13
2023-04-30T10:58:00.414Z,40.41
2023-04-30T11:00:31.956Z,39.90
2023-04-30T11:03:04.003Z,39.41
2023-04-30T11:05:36.774Z,39.58
2023-04-30T11:08:03.710Z,40.10
2023-04-30T11:10:34.724Z,40.10
2023-04-30T11:13:10.222Z,39.20
2023-04-30T11:15:41.804Z,39.22
2023-04-30T11:18:09.517Z,38.63
2023-04-30T11:20:42.130Z,38.58
2023-04-30T11:23:17.420Z,38.74
2023-04-30T11:25:55.214Z,38.96
2023-04-30T11:28:23.485Z,39.06
2023-04-30T11:30:58.915Z,38.88
2023-04-30T11:33:31.387Z,38.61
2023-04-30T11:35:59.636Z,38.78
2023-04-30T11:38:37.667Z,38.13
2023-04-30T11:41:05.082Z,37.64
2023-04-30T11:43:33.780Z,38.29
2023-04-30T11:46:06.559Z,38.15
2023-04-30T11:48:34.926Z,38.23
2023-04-30T11:51:07.480Z,38.22
2023-04-30T11:53:34.111Z,38.63
2023-04-30T11:56:04.179Z,37.97
2023-04-30T11:58:34.482Z,38.25
2023-04-30T12:01:01.584Z,38.07
2023-04-30T12:03:29.348Z,37.89
2023-04-30T12:05:56.225Z,37.61
2023-04-30T12:08:23.689Z,37.87
2023-04-30T12:10:50.346Z,37.15
2023-04-30T12:13:16.875Z,37.22
2023-04-30T12:15:43.594Z,37.90
2023-04-30T12:18:14.133Z,37.54
2023-04-30T12:20:42.011Z,37.65
2023-04-30T12:23:08.745Z,38.04
2023-04-30T12:25:43.967Z,38.61
2023-04-30T12:28:11.763Z,38.37
2023-04-30T12:30:38.479Z,38.49
2023-04-30T12:33:06.167Z,37.80
2023-04-30T12:35:32.778Z,37.91
2023-04-30T12:38:07.015Z,37.59
2023-04-30T12:40:33.891Z,37.81
2023-04-30T12:43:02.531Z,37.65
2023-04-30T12:45:52.351Z,36.97
2023-04-30T12:48:21.392Z,36.31
2023-04-30T12:51:02.158Z,36.31
2023-04-30T12:53:29.699Z,36.47
2023-04-30T12:56:17.515Z,36.82
2023-04-30T12:58:47.367Z,36.16
2023-04-30T13:01:17.267Z,35.39
2023-04-30T13:03:44.067Z,35.65
2023-04-30T13:06:10.746Z,36.02
2023-04-30T13:08:49.554Z,35.65
2023-04-30T13:11:24.289Z,35.44
2023-04-30T13:13:51.169Z,34.88
2023-04-30T13:16:17.738Z,34.93
2023-04-30T13:18:44.298Z,34.67
2023-04-30T13:21:10.839Z,35.14
2023-04-30T13:23:44.798Z,34.69
2023-04-30T13:26:18.897Z,35.22
2023-04-30T13:28:45.482Z,34.95
2023-04-30T13:31:12.291Z,35.13
2023-04-30T13:33:38.894Z,35.07
2023-04-30T13:36:05.988Z,35.27
2023-04-30T13:38:33.079Z,34.65
2023-04-30T13:40:59.588Z,35.07
2023-04-30T13:43:26.168Z,35.27
2023-04-30T13:45:52.737Z,35.15
2023-04-30T13:48:19.403Z,34.93
2023-04-30T13:50:46.015Z,34.58
2023-04-30T13:53:12.669Z,35.58
2023-04-30T13:55:39.186Z,36.09
2023-04-30T13:58:05.928Z,36.12
2023-04-30T14:00:32.517Z,36.16
2023-04-30T14:02:59.208Z,36.31
2023-04-30T14:05:25.869Z,35.57
2023-04-30T14:07:52.429Z,35.77
2023-04-30T14:10:19.140Z,35.96
2023-04-30T14:12:45.655Z,35.50
2023-04-30T14:15:12.218Z,35.30
2023-04-30T14:17:38.838Z,35.52
2023-04-30T14:20:06.032Z,35.30
2023-04-30T14:22:34.581Z,35.00
2023-04-30T14:25:01.183Z,34.74
2023-04-30T14:27:27.688Z,34.30
2023-04-30T14:29:54.584Z,34.05
2023-04-30T14:32:21.600Z,34.28
2023-04-30T14:34:48.171Z,34.13
2023-04-30T14:37:15.615Z,33.92
2023-04-30T14:39:42.574Z,34.27
2023-04-30T14:42:09.643Z,33.85
2023-04-30T14:44:37.945Z,34.23
2023-04-30T14:47:04.717Z,34.11
2023-04-30T14:49:31.538Z,34.62
2023-04-30T14:51:58.077Z,34.01
2023-04-30T14:54:24.667Z,34.31
2023-04-30T14:56:52.083Z,34.13
2023-04-30T14:59:18.591Z,34.07
2023-04-30T15:01:45.263Z,34.88
2023-04-30T15:04:11.999Z,35.17
2023-04-30T15:06:38.637Z,35.76
2023-04-30T15:09:06.393Z,35.38
2023-04-30T15:11:32.929Z,35.67
2023-04-30T15:13:59.521Z,35.42
2023-04-30T15:16:26.563Z,34.92
2023-04-30T15:18:54.274Z,35.32
2023-04-30T15:21:20.763Z,34.88
2023-04-30T15:23:47.734Z,34.54
2023-04-30T15:26:14.368Z,34.64
2023-04-30T15:28:40.893Z,34.89
2023-04-30T15:31:07.508Z,34.66
2023-04-30T15:33:39.534Z,34.73
2023-04-30T15:36:06.513Z,34.66
2023-04-30T15:38:33.195Z,34.85
2023-04-30T15:40:59.724Z,35.34
2023-04-30T15:43:26.325Z,35.30
2023-04-30T15:45:53.125Z,34.65
2023-04-30T15:48:19.861Z,34.50
2023-04-30T15:50:46.416Z,33.94
2023-04-30T15:53:12.917Z,33.10
2023-04-30T15:55:39.671Z,32.50
2023-04-30T15:58:06.358Z,31.95
2023-04-30T16:00:33.668Z,32.49
2023-04-30T16:03:00.697Z,31.54
2023-04-30T16:05:27.678Z,31.25
2023-04-30T16:07:54.550Z,31.39
2023-04-30T16:10:21.659Z,31.08
2023-04-30T16:12:48.647Z,30.92
2023-04-30T16:15:15.278Z,31.35
2023-04-30T16:17:41.879Z,31.16
2023-04-30T16:20:08.878Z,31.06
2023-04-30T16:22:35.644Z,31.37
2023-04-30T16:25:02.294Z,31.80
2023-04-30T16:27:28.810Z,31.81
2023-04-30T16:29:55.617Z,32.64
2023-04-30T16:32:22.462Z,32.76
2023-04-30T16:34:49.149Z,32.96
2023-04-30T16:37:15.790Z,33.27
2023-04-30T16:39:42.542Z,33.42
2023-04-30T16:42:09.358Z,34.08
2023-04-30T16:44:35.964Z,34.47
2023-04-30T16:47:02.741Z,33.88
2023-04-30T16:49:29.239Z,34.21
2023-04-30T16:51:55.831Z,34.25
2023-04-30T16:54:22.513Z,34.82
2023-04-30T16:56:49.004Z,35.30
2023-04-30T16:59:15.524Z,35.09
2023-04-30T17:01:42.184Z,35.23
2023-04-30T17:04:08.737Z,36.07
2023-04-30T17:06:35.761Z,35.72
2023-04-30T17:09:02.513Z,35.88
2023-04-30T17:11:29.147Z,35.96
2023-04-30T17:13:56.022Z,36.25
2023-04-30T17:16:22.789Z,36.49
2023-04-30T17:18:49.469Z,36.93
2023-04-30T17:21:16.118Z,37.30
2023-04-30T17:23:42.776Z,37.30
2023-04-30T17:26:09.796Z,36.74
2023-04-30T17:28:37.482Z,37.57
2023-04-30T17:31:07.119Z,38.61
2023-04-30T17:33:34.094Z,38.13
2023-04-30T17:36:00.758Z,38.04
2023-04-30T17:38:27.421Z,37.90
2023-04-30T17:40:54.293Z,38.19
2023-04-30T17:43:20.821Z,38.20
2023-04-30T17:45:47.593Z,39.50
2023-04-30T17:48:14.275Z,40.35
2023-04-30T17:50:41.266Z,41.11
2023-04-30T17:53:07.862Z,42.47
2023-04-30T17:55:34.425Z,43.12
2023-04-30T17:58:01.027Z,42.94
2023-04-30T18:00:27.550Z,43.55
2023-04-30T18:02:54.202Z,43.95
2023-04-30T18:05:20.980Z,43.97
2023-04-30T18:07:48.502Z,44.13
2023-04-30T18:10:15.183Z,44.79
2023-04-30T18:12:42.012Z,45.51
2023-04-30T18:15:08.947Z,46.29
2023-04-30T18:17:37.246Z,46.25
2023-04-30T18:20:04.545Z,46.45
2023-04-30T18:22:31.085Z,46.19
2023-04-30T18:24:57.666Z,46.55
2023-04-30T18:27:24.170Z,47.65
2023-04-30T18:29:51.636Z,47.84
2023-04-30T18:32:18.470Z,48.13
2023-04-30T18:34:45.062Z,48.31
2023-04-30T18:37:11.679Z,48.32
2023-04-30T18:39:38.210Z,48.73
2023-04-30T18:42:04.853Z,48.51
2023-04-30T18:44:32.118Z,48.42
2023-04-30T18:46:58.983Z,49.30
2023-04-30T18:49:25.586Z,49.62
2023-04-30T18:51:52.195Z,49.46
2023-04-30T18:54:18.716Z,50.10
2023-04-30T18:56:45.328Z,50.56
2023-04-30T18:59:11.898Z,50.67
2023-04-30T19:01:38.514Z,51.10
2023-04-30T19:04:05.127Z,51.13
2023-04-30T19:06:33.481Z,51.36
2023-04-30T19:09:00.080Z,51.44
2023-04-30T19:11:27.167Z,51.90
2023-04-30T19:13:53.778Z,52.02
2023-04-30T19:16:20.326Z,51.83
2023-04-30T19:18:47.044Z,52.51
2023-04-30T19:21:14.890Z,52.22
2023-04-30T19:23:41.506Z,52.69
2023-04-30T19:26:08.028Z,52.26
2023-04-30T19:28:34.572Z,53.07
2023-04-30T19:31:01.245Z,53.02
2023-04-30T19:33:28.410Z,53.14
2023-04-30T19:35:55.192Z,53.52
2023-04-30T19:38:21.974Z,53.91
2023-04-30T19:40:52.525Z,53.80
2023-04-30T19:43:20.523Z,54.07
2023-04-30T19:45:51.931Z,53.95
2023-04-30T19:48:18.556Z,54.23
2023-04-30T19:50:46.790Z,54.54
2023-04-30T19:53:14.203Z,54.23
2023-04-30T19:55:40.808Z,54.62
2023-04-30T19:58:07.636Z,55.46
2023-04-30T20:00:37.220Z,55.85
2023-04-30T20:03:05.381Z,55.75
2023-04-30T20:05:32.747Z,55.83
2023-04-30T20:07:59.804Z,55.87
2023-04-30T20:10:26.480Z,56.51
2023-04-30T20:12:53.780Z,56.17
2023-04-30T20:15:21.808Z,56.50
2023-04-30T20:17:50.190Z,56.79
2023-04-30T20:20:17.520Z,56.98
2023-04-30T20:22:44.211Z,56.93
2023-04-30T20:25:10.783Z,57.14
2023-04-30T20:27:37.313Z,57.49
2023-04-30T20:30:04.746Z,57.57
2023-04-30T20:32:31.735Z,57.44
2023-04-30T20:34:58.838Z,57.96
2023-04-30T20:37:25.555Z,57.93
2023-04-30T20:39:52.219Z,58.40
2023-04-30T20:42:19.831Z,58.80
2023-04-30T20:44:47.411Z,58.63
2023-04-30T20:47:16.939Z,58.81
2023-04-30T20:49:43.608Z,59.43
2023-04-30T20:52:12.142Z,58.92
2023-04-30T20:54:39.302Z,58.66
2023-04-30T20:57:06.027Z,59.47
2023-04-30T20:59:33.000Z,59.16
2023-04-30T21:01:59.607Z,59.09
2023-04-30T21:04:26.173Z,59.34
2023-04-30T21:06:52.676Z,59.60
2023-04-30T21:09:19.210Z,59.59
2023-04-30T21:11:45.836Z,60.26
2023-04-30T21:14:12.418Z,59.87
2023-04-30T21:16:40.666Z,59.81
2023-04-30T21:19:07.393Z,60.04
2023-04-30T21:21:34.496Z,60.43
2023-04-30T21:24:01.192Z,59.93
2023-04-30T21:26:28.183Z,60.51
2023-04-30T21:28:54.769Z,59.70
2023-04-30T21:31:21.402Z,60.86
2023-04-30T21:33:48.174Z,60.41
2023-04-30T21:36:16.434Z,60.90
2023-04-30T21:38:43.169Z,60.67
2023-04-30T21:41:14.383Z,61.17
2023-04-30T21:43:44.322Z,60.92
2023-04-30T21:46:11.142Z,61.19
2023-04-30T21:48:38.476Z,61.51
2023-04-30T21:51:16.913Z,62.01
2023-04-30T21:53:44.566Z,61.47
2023-04-30T21:56:11.961Z,61.56
2023-04-30T21:58:39.408Z,61.75
2023-04-30T22:01:06.342Z,61.76
2023-04-30T22:03:33.365Z,61.73
2023-04-30T22:06:00.788Z,61.55
2023-04-30T22:08:27.564Z,61.76
2023-04-30T22:10:58.992Z,61.68
2023-04-30T22:13:29.466Z,62.70
2023-04-30T22:15:56.592Z,62.64
2023-04-30T22:18:24.458Z,62.94
2023-04-30T22:20:52.322Z,63.01
2023-04-30T22:23:21.286Z,62.87
2023-04-30T22:25:48.231Z,63.16
2023-04-30T22:28:16.931Z,62.59
2023-04-30T22:30:43.895Z,62.93
2023-04-30T22:33:10.721Z,63.78
2023-04-30T22:35:40.408Z,62.92
2023-04-30T22:38:07.585Z,63.83
2023-04-30T22:40:38.380Z,64.17
2023-04-30T22:43:05.937Z,64.23
2023-04-30T22:45:32.805Z,63.97
2023-04-30T22:48:01.608Z,64.53
2023-04-30T22:50:30.048Z,64.01
2023-04-30T22:52:56.791Z,64.37
2023-04-30T22:55:23.421Z,64.84
2023-04-30T22:57:50.002Z,64.75
2023-04-30T23:00:19.100Z,64.97
2023-04-30T23:02:45.965Z,65.41
2023-04-30T23:05:12.944Z,65.70
2023-04-30T23:07:39.750Z,65.75
2023-04-30T23:10:06.819Z,65.81
2023-04-30T23:12:33.366Z,66.44
2023-04-30T23:14:59.955Z,66.53
2023-04-30T23:17:26.965Z,65.88
2023-04-30T23:19:54.062Z,66.05
2023-04-30T23:22:20.832Z,66.84
2023-04-30T23:24:47.488Z,66.24
2023-04-30T23:27:14.243Z,66.76
2023-04-30T23:29:40.949Z,66.14
2023-04-30T23:32:07.572Z,66.62
2023-04-30T23:34:34.437Z,66.28
2023-04-30T23:37:01.059Z,66.93
2023-04-30T23:39:27.589Z,65.96
2023-04-30T23:41:54.595Z,65.97
2023-04-30T23:44:21.713Z,66.65
2023-04-30T23:46:48.431Z,65.77
2023-04-30T23:49:16.562Z,65.72
2023-04-30T23:51:43.061Z,66.70
2023-04-30T23:54:09.555Z,65.87
2023-04-30T23:56:37.410Z,65.70
2023-04-30T23:59:05.300Z,65.60
